sensor_id;sensor_type;location;lat;lon;timestamp;P1;durP1;ratioP1;P2;durP2;ratioP2
71290;SDS011;59073;51.994;4.448;2023-03-01T00:02:05;11.23;;;11.22;;
71290;SDS011;59073;51.994;4.448;2023-03-01T00:04:31;12.11;;;12.10;;
71290;SDS011;59073;51.994;4.448;2023-03-01T00:06:57;11.72;;;11.72;;
71290;SDS011;59073;51.994;4.448;2023-03-01T00:09:22;11.55;;;11.55;;
71290;SDS011;59073;51.994;4.448;2023-03-01T00:11:48;11.45;;;11.45;;
71290;SDS011;59073;51.994;4.448;2023-03-01T00:14:14;11.65;;;11.65;;
71290;SDS011;59073;51.994;4.448;2023-03-01T00:16:42;11.50;;;11.49;;
71290;SDS011;59073;51.994;4.448;2023-03-01T00:19:11;12.10;;;12.10;;
71290;SDS011;59073;51.994;4.448;2023-03-01T00:21:38;12.48;;;12.48;;
71290;SDS011;59073;51.994;4.448;2023-03-01T00:24:05;12.15;;;12.14;;
71290;SDS011;59073;51.994;4.448;2023-03-01T00:26:30;12.58;;;12.51;;
71290;SDS011;59073;51.994;4.448;2023-03-01T00:28:56;12.35;;;12.30;;
71290;SDS011;59073;51.994;4.448;2023-03-01T00:31:24;13.27;;;13.26;;
71290;SDS011;59073;51.994;4.448;2023-03-01T00:33:53;12.61;;;12.61;;
71290;SDS011;59073;51.994;4.448;2023-03-01T00:36:22;12.61;;;12.61;;
71290;SDS011;59073;51.994;4.448;2023-03-01T00:38:50;12.94;;;12.93;;
71290;SDS011;59073;51.994;4.448;2023-03-01T00:41:16;12.36;;;12.35;;
71290;SDS011;59073;51.994;4.448;2023-03-01T00:43:43;12.60;;;12.55;;
71290;SDS011;59073;51.994;4.448;2023-03-01T00:46:14;12.81;;;12.79;;
71290;SDS011;59073;51.994;4.448;2023-03-01T00:48:42;12.76;;;12.74;;
71290;SDS011;59073;51.994;4.448;2023-03-01T00:51:08;12.39;;;12.35;;
71290;SDS011;59073;51.994;4.448;2023-03-01T00:53:35;13.19;;;13.07;;
71290;SDS011;59073;51.994;4.448;2023-03-01T00:56:01;12.88;;;12.69;;
71290;SDS011;59073;51.994;4.448;2023-03-01T00:58:28;13.06;;;13.02;;
71290;SDS011;59073;51.994;4.448;2023-03-01T01:00:54;13.09;;;13.09;;
71290;SDS011;59073;51.994;4.448;2023-03-01T01:03:19;12.77;;;12.75;;
71290;SDS011;59073;51.994;4.448;2023-03-01T01:05:45;13.00;;;12.96;;
71290;SDS011;59073;51.994;4.448;2023-03-01T01:08:10;14.02;;;14.00;;
71290;SDS011;59073;51.994;4.448;2023-03-01T01:10:36;13.23;;;13.22;;
71290;SDS011;59073;51.994;4.448;2023-03-01T01:13:02;13.92;;;13.82;;
71290;SDS011;59073;51.994;4.448;2023-03-01T01:15:28;14.73;;;14.73;;
71290;SDS011;59073;51.994;4.448;2023-03-01T01:17:53;13.56;;;13.55;;
71290;SDS011;59073;51.994;4.448;2023-03-01T01:20:20;13.51;;;13.45;;
71290;SDS011;59073;51.994;4.448;2023-03-01T01:22:45;13.76;;;13.73;;
71290;SDS011;59073;51.994;4.448;2023-03-01T01:25:11;13.13;;;13.09;;
71290;SDS011;59073;51.994;4.448;2023-03-01T01:27:37;13.80;;;13.70;;
71290;SDS011;59073;51.994;4.448;2023-03-01T01:30:03;13.88;;;13.76;;
71290;SDS011;59073;51.994;4.448;2023-03-01T01:32:29;13.64;;;13.57;;
71290;SDS011;59073;51.994;4.448;2023-03-01T01:34:54;14.53;;;14.47;;
71290;SDS011;59073;51.994;4.448;2023-03-01T01:37:20;15.42;;;15.33;;
71290;SDS011;59073;51.994;4.448;2023-03-01T01:39:45;15.69;;;15.51;;
71290;SDS011;59073;51.994;4.448;2023-03-01T01:42:13;15.78;;;15.66;;
71290;SDS011;59073;51.994;4.448;2023-03-01T01:44:42;15.31;;;15.26;;
71290;SDS011;59073;51.994;4.448;2023-03-01T01:47:12;15.11;;;15.01;;
71290;SDS011;59073;51.994;4.448;2023-03-01T01:52:24;14.94;;;14.82;;
71290;SDS011;59073;51.994;4.448;2023-03-01T01:55:03;16.83;;;16.79;;
71290;SDS011;59073;51.994;4.448;2023-03-01T01:57:39;16.89;;;16.75;;
71290;SDS011;59073;51.994;4.448;2023-03-01T02:00:10;16.44;;;16.37;;
71290;SDS011;59073;51.994;4.448;2023-03-01T02:02:38;16.89;;;16.84;;
71290;SDS011;59073;51.994;4.448;2023-03-01T02:05:15;17.14;;;16.94;;
71290;SDS011;59073;51.994;4.448;2023-03-01T02:07:54;16.99;;;16.88;;
71290;SDS011;59073;51.994;4.448;2023-03-01T02:10:22;16.68;;;16.64;;
71290;SDS011;59073;51.994;4.448;2023-03-01T02:12:49;16.15;;;15.99;;
71290;SDS011;59073;51.994;4.448;2023-03-01T02:15:16;16.66;;;16.48;;
71290;SDS011;59073;51.994;4.448;2023-03-01T02:17:41;15.98;;;15.87;;
71290;SDS011;59073;51.994;4.448;2023-03-01T02:22:33;16.47;;;16.16;;
71290;SDS011;59073;51.994;4.448;2023-03-01T02:30:28;15.33;;;15.33;;
71290;SDS011;59073;51.994;4.448;2023-03-01T02:32:56;15.95;;;15.89;;
71290;SDS011;59073;51.994;4.448;2023-03-01T02:35:34;16.15;;;16.10;;
71290;SDS011;59073;51.994;4.448;2023-03-01T02:38:03;16.77;;;16.65;;
71290;SDS011;59073;51.994;4.448;2023-03-01T02:40:33;17.00;;;16.93;;
71290;SDS011;59073;51.994;4.448;2023-03-01T02:43:01;16.51;;;16.38;;
71290;SDS011;59073;51.994;4.448;2023-03-01T02:45:33;17.15;;;16.93;;
71290;SDS011;59073;51.994;4.448;2023-03-01T02:47:58;16.92;;;16.82;;
71290;SDS011;59073;51.994;4.448;2023-03-01T02:52:57;17.11;;;16.92;;
71290;SDS011;59073;51.994;4.448;2023-03-01T02:55:36;17.06;;;16.92;;
71290;SDS011;59073;51.994;4.448;2023-03-01T02:58:02;17.58;;;17.48;;
71290;SDS011;59073;51.994;4.448;2023-03-01T03:00:29;17.72;;;17.45;;
71290;SDS011;59073;51.994;4.448;2023-03-01T03:03:00;17.53;;;17.37;;
71290;SDS011;59073;51.994;4.448;2023-03-01T03:05:27;17.71;;;17.35;;
71290;SDS011;59073;51.994;4.448;2023-03-01T03:07:55;17.78;;;17.45;;
71290;SDS011;59073;51.994;4.448;2023-03-01T03:10:23;17.44;;;17.19;;
71290;SDS011;59073;51.994;4.448;2023-03-01T03:12:51;16.64;;;16.60;;
71290;SDS011;59073;51.994;4.448;2023-03-01T03:15:20;16.80;;;16.77;;
71290;SDS011;59073;51.994;4.448;2023-03-01T03:17:47;17.19;;;16.91;;
71290;SDS011;59073;51.994;4.448;2023-03-01T03:20:16;16.93;;;16.81;;
71290;SDS011;59073;51.994;4.448;2023-03-01T03:22:44;16.61;;;16.61;;
71290;SDS011;59073;51.994;4.448;2023-03-01T03:25:11;16.96;;;16.93;;
71290;SDS011;59073;51.994;4.448;2023-03-01T03:27:40;16.95;;;16.88;;
71290;SDS011;59073;51.994;4.448;2023-03-01T03:30:08;17.80;;;17.63;;
71290;SDS011;59073;51.994;4.448;2023-03-01T03:32:35;17.97;;;17.77;;
71290;SDS011;59073;51.994;4.448;2023-03-01T03:35:01;18.52;;;18.33;;
71290;SDS011;59073;51.994;4.448;2023-03-01T03:37:33;18.03;;;17.80;;
71290;SDS011;59073;51.994;4.448;2023-03-01T03:40:17;18.31;;;18.27;;
71290;SDS011;59073;51.994;4.448;2023-03-01T03:42:43;17.83;;;17.67;;
71290;SDS011;59073;51.994;4.448;2023-03-01T03:45:08;17.88;;;17.76;;
71290;SDS011;59073;51.994;4.448;2023-03-01T03:47:34;18.38;;;18.11;;
71290;SDS011;59073;51.994;4.448;2023-03-01T03:49:59;18.46;;;18.31;;
71290;SDS011;59073;51.994;4.448;2023-03-01T03:52:25;17.79;;;17.70;;
71290;SDS011;59073;51.994;4.448;2023-03-01T03:54:50;18.34;;;18.07;;
71290;SDS011;59073;51.994;4.448;2023-03-01T03:57:15;18.52;;;18.39;;
71290;SDS011;59073;51.994;4.448;2023-03-01T03:59:41;18.60;;;18.48;;
71290;SDS011;59073;51.994;4.448;2023-03-01T04:02:06;18.41;;;18.18;;
71290;SDS011;59073;51.994;4.448;2023-03-01T04:04:33;20.20;;;20.10;;
71290;SDS011;59073;51.994;4.448;2023-03-01T04:06:59;18.76;;;18.65;;
71290;SDS011;59073;51.994;4.448;2023-03-01T04:09:25;18.73;;;18.52;;
71290;SDS011;59073;51.994;4.448;2023-03-01T04:11:53;18.63;;;18.32;;
71290;SDS011;59073;51.994;4.448;2023-03-01T04:14:19;18.56;;;18.22;;
71290;SDS011;59073;51.994;4.448;2023-03-01T04:16:47;19.41;;;19.06;;
71290;SDS011;59073;51.994;4.448;2023-03-01T04:19:15;18.90;;;18.87;;
71290;SDS011;59073;51.994;4.448;2023-03-01T04:21:43;19.10;;;18.91;;
71290;SDS011;59073;51.994;4.448;2023-03-01T04:24:09;20.06;;;19.72;;
71290;SDS011;59073;51.994;4.448;2023-03-01T04:26:37;19.10;;;18.93;;
71290;SDS011;59073;51.994;4.448;2023-03-01T04:29:05;18.65;;;18.44;;
71290;SDS011;59073;51.994;4.448;2023-03-01T04:31:31;18.60;;;18.41;;
71290;SDS011;59073;51.994;4.448;2023-03-01T04:34:00;19.15;;;18.98;;
71290;SDS011;59073;51.994;4.448;2023-03-01T04:36:26;17.90;;;17.79;;
71290;SDS011;59073;51.994;4.448;2023-03-01T04:38:53;17.06;;;16.96;;
71290;SDS011;59073;51.994;4.448;2023-03-01T04:41:20;16.27;;;16.24;;
71290;SDS011;59073;51.994;4.448;2023-03-01T04:43:52;15.94;;;15.91;;
71290;SDS011;59073;51.994;4.448;2023-03-01T04:46:20;15.43;;;15.42;;
71290;SDS011;59073;51.994;4.448;2023-03-01T04:48:47;16.36;;;16.30;;
71290;SDS011;59073;51.994;4.448;2023-03-01T04:51:13;16.42;;;16.34;;
71290;SDS011;59073;51.994;4.448;2023-03-01T04:53:39;15.91;;;15.86;;
71290;SDS011;59073;51.994;4.448;2023-03-01T04:56:13;16.13;;;16.07;;
71290;SDS011;59073;51.994;4.448;2023-03-01T04:58:44;17.14;;;17.02;;
71290;SDS011;59073;51.994;4.448;2023-03-01T05:01:15;17.07;;;17.02;;
71290;SDS011;59073;51.994;4.448;2023-03-01T05:03:44;16.89;;;16.64;;
71290;SDS011;59073;51.994;4.448;2023-03-01T05:06:14;17.37;;;17.27;;
71290;SDS011;59073;51.994;4.448;2023-03-01T05:08:49;16.71;;;16.63;;
71290;SDS011;59073;51.994;4.448;2023-03-01T06:09:45;14.99;;;14.77;;
71290;SDS011;59073;51.994;4.448;2023-03-01T06:12:13;13.78;;;13.62;;
71290;SDS011;59073;51.994;4.448;2023-03-01T06:14:42;13.36;;;13.03;;
71290;SDS011;59073;51.994;4.448;2023-03-01T06:17:07;11.84;;;11.70;;
71290;SDS011;59073;51.994;4.448;2023-03-01T06:19:33;11.08;;;10.99;;
71290;SDS011;59073;51.994;4.448;2023-03-01T06:21:58;11.77;;;11.42;;
71290;SDS011;59073;51.994;4.448;2023-03-01T06:24:37;11.90;;;11.84;;
71290;SDS011;59073;51.994;4.448;2023-03-01T06:27:05;12.35;;;12.26;;
71290;SDS011;59073;51.994;4.448;2023-03-01T06:29:30;12.38;;;12.33;;
71290;SDS011;59073;51.994;4.448;2023-03-01T06:31:56;11.71;;;11.71;;
71290;SDS011;59073;51.994;4.448;2023-03-01T06:35:02;11.16;;;11.15;;
71290;SDS011;59073;51.994;4.448;2023-03-01T06:37:46;10.47;;;10.47;;
71290;SDS011;59073;51.994;4.448;2023-03-01T06:40:26;10.23;;;10.23;;
71290;SDS011;59073;51.994;4.448;2023-03-01T06:43:05;11.01;;;11.01;;
71290;SDS011;59073;51.994;4.448;2023-03-01T06:45:40;11.21;;;11.19;;
71290;SDS011;59073;51.994;4.448;2023-03-01T06:48:06;10.78;;;10.77;;
71290;SDS011;59073;51.994;4.448;2023-03-01T06:50:35;10.85;;;10.85;;
71290;SDS011;59073;51.994;4.448;2023-03-01T06:53:17;11.05;;;11.05;;
71290;SDS011;59073;51.994;4.448;2023-03-01T06:55:53;10.80;;;10.80;;
71290;SDS011;59073;51.994;4.448;2023-03-01T06:58:40;10.83;;;10.83;;
71290;SDS011;59073;51.994;4.448;2023-03-01T07:05:17;10.88;;;10.88;;
71290;SDS011;59073;51.994;4.448;2023-03-01T07:07:42;11.15;;;11.14;;
71290;SDS011;59073;51.994;4.448;2023-03-01T07:14:01;11.00;;;11.00;;
71290;SDS011;59073;51.994;4.448;2023-03-01T07:16:36;11.57;;;11.52;;
71290;SDS011;59073;51.994;4.448;2023-03-01T07:19:01;12.01;;;12.00;;
71290;SDS011;59073;51.994;4.448;2023-03-01T07:21:27;12.29;;;12.29;;
71290;SDS011;59073;51.994;4.448;2023-03-01T07:23:52;12.44;;;12.44;;
71290;SDS011;59073;51.994;4.448;2023-03-01T07:26:18;11.46;;;11.46;;
71290;SDS011;59073;51.994;4.448;2023-03-01T07:28:43;11.21;;;11.21;;
71290;SDS011;59073;51.994;4.448;2023-03-01T07:31:35;11.04;;;11.04;;
71290;SDS011;59073;51.994;4.448;2023-03-01T07:34:00;11.12;;;11.12;;
71290;SDS011;59073;51.994;4.448;2023-03-01T07:36:26;11.50;;;11.49;;
71290;SDS011;59073;51.994;4.448;2023-03-01T07:38:51;11.26;;;11.25;;
71290;SDS011;59073;51.994;4.448;2023-03-01T07:41:17;10.69;;;10.69;;
71290;SDS011;59073;51.994;4.448;2023-03-01T07:43:42;11.08;;;11.08;;
71290;SDS011;59073;51.994;4.448;2023-03-01T07:46:08;12.17;;;12.16;;
71290;SDS011;59073;51.994;4.448;2023-03-01T07:48:34;13.67;;;13.67;;
71290;SDS011;59073;51.994;4.448;2023-03-01T07:51:00;15.04;;;15.01;;
71290;SDS011;59073;51.994;4.448;2023-03-01T07:53:31;16.54;;;16.27;;
71290;SDS011;59073;51.994;4.448;2023-03-01T07:58:35;17.76;;;17.71;;
71290;SDS011;59073;51.994;4.448;2023-03-01T08:01:12;16.22;;;16.14;;
71290;SDS011;59073;51.994;4.448;2023-03-01T08:03:50;17.13;;;17.10;;
71290;SDS011;59073;51.994;4.448;2023-03-01T08:06:18;17.69;;;17.35;;
71290;SDS011;59073;51.994;4.448;2023-03-01T08:08:44;17.09;;;16.90;;
71290;SDS011;59073;51.994;4.448;2023-03-01T08:11:11;17.90;;;17.58;;
71290;SDS011;59073;51.994;4.448;2023-03-01T08:13:38;16.93;;;16.85;;
71290;SDS011;59073;51.994;4.448;2023-03-01T08:16:04;16.53;;;16.25;;
71290;SDS011;59073;51.994;4.448;2023-03-01T08:18:32;16.64;;;16.57;;
71290;SDS011;59073;51.994;4.448;2023-03-01T08:34:16;16.45;;;16.32;;
71290;SDS011;59073;51.994;4.448;2023-03-01T09:12:40;8.96;;;8.96;;
71290;SDS011;59073;51.994;4.448;2023-03-01T09:19:24;10.82;;;10.81;;
71290;SDS011;59073;51.994;4.448;2023-03-01T09:22:04;10.76;;;10.66;;
71290;SDS011;59073;51.994;4.448;2023-03-01T09:24:32;10.28;;;10.14;;
71290;SDS011;59073;51.994;4.448;2023-03-01T09:30:49;9.65;;;9.64;;
71290;SDS011;59073;51.994;4.448;2023-03-01T09:33:33;9.22;;;9.22;;
71290;SDS011;59073;51.994;4.448;2023-03-01T09:43:05;9.12;;;9.05;;
71290;SDS011;59073;51.994;4.448;2023-03-01T09:49:12;8.29;;;8.25;;
71290;SDS011;59073;51.994;4.448;2023-03-01T09:54:55;8.93;;;8.93;;
71290;SDS011;59073;51.994;4.448;2023-03-01T09:57:43;8.58;;;8.58;;
71290;SDS011;59073;51.994;4.448;2023-03-01T10:24:42;5.69;;;5.57;;
71290;SDS011;59073;51.994;4.448;2023-03-01T10:51:23;4.82;;;4.81;;
71290;SDS011;59073;51.994;4.448;2023-03-01T10:56:54;5.50;;;5.50;;
71290;SDS011;59073;51.994;4.448;2023-03-01T10:59:43;5.65;;;5.65;;
71290;SDS011;59073;51.994;4.448;2023-03-01T11:02:39;5.72;;;5.72;;
71290;SDS011;59073;51.994;4.448;2023-03-01T11:12:34;6.67;;;6.66;;
71290;SDS011;59073;51.994;4.448;2023-03-01T11:18:56;7.11;;;7.11;;
71290;SDS011;59073;51.994;4.448;2023-03-01T11:24:18;7.75;;;7.75;;
71290;SDS011;59073;51.994;4.448;2023-03-01T11:26:55;7.36;;;7.36;;
71290;SDS011;59073;51.994;4.448;2023-03-01T11:29:26;7.12;;;7.12;;
71290;SDS011;59073;51.994;4.448;2023-03-01T11:31:56;7.18;;;7.13;;
71290;SDS011;59073;51.994;4.448;2023-03-01T11:34:36;7.26;;;7.14;;
71290;SDS011;59073;51.994;4.448;2023-03-01T11:37:38;7.10;;;7.04;;
71290;SDS011;59073;51.994;4.448;2023-03-01T11:40:29;8.13;;;8.01;;
71290;SDS011;59073;51.994;4.448;2023-03-01T11:53:14;7.82;;;7.79;;
71290;SDS011;59073;51.994;4.448;2023-03-01T12:01:48;7.33;;;7.32;;
71290;SDS011;59073;51.994;4.448;2023-03-01T12:04:36;7.59;;;7.59;;
71290;SDS011;59073;51.994;4.448;2023-03-01T12:12:50;8.10;;;8.05;;
71290;SDS011;59073;51.994;4.448;2023-03-01T12:24:04;8.82;;;8.82;;
71290;SDS011;59073;51.994;4.448;2023-03-01T12:26:42;9.75;;;9.70;;
71290;SDS011;59073;51.994;4.448;2023-03-01T12:32:36;9.12;;;9.05;;
71290;SDS011;59073;51.994;4.448;2023-03-01T12:51:31;8.56;;;8.36;;
71290;SDS011;59073;51.994;4.448;2023-03-01T13:00:48;7.87;;;7.75;;
71290;SDS011;59073;51.994;4.448;2023-03-01T13:30:58;6.69;;;6.68;;
71290;SDS011;59073;51.994;4.448;2023-03-01T14:15:24;5.11;;;5.10;;
71290;SDS011;59073;51.994;4.448;2023-03-01T14:43:58;5.17;;;5.17;;
71290;SDS011;59073;51.994;4.448;2023-03-01T14:57:19;4.98;;;4.97;;
71290;SDS011;59073;51.994;4.448;2023-03-01T15:55:56;5.13;;;5.13;;
71290;SDS011;59073;51.994;4.448;2023-03-01T16:22:54;5.76;;;5.72;;
71290;SDS011;59073;51.994;4.448;2023-03-01T16:25:25;5.34;;;5.32;;
71290;SDS011;59073;51.994;4.448;2023-03-01T16:27:51;5.47;;;5.42;;
71290;SDS011;59073;51.994;4.448;2023-03-01T16:30:27;5.86;;;5.85;;
71290;SDS011;59073;51.994;4.448;2023-03-01T16:32:55;5.62;;;5.61;;
71290;SDS011;59073;51.994;4.448;2023-03-01T16:45:01;4.97;;;4.92;;
71290;SDS011;59073;51.994;4.448;2023-03-01T17:06:04;5.55;;;5.52;;
71290;SDS011;59073;51.994;4.448;2023-03-01T17:08:35;5.89;;;5.87;;
71290;SDS011;59073;51.994;4.448;2023-03-01T17:14:32;5.85;;;5.73;;
71290;SDS011;59073;51.994;4.448;2023-03-01T17:16:57;5.48;;;5.44;;
71290;SDS011;59073;51.994;4.448;2023-03-01T17:19:23;6.07;;;6.00;;
71290;SDS011;59073;51.994;4.448;2023-03-01T17:21:48;5.44;;;5.36;;
71290;SDS011;59073;51.994;4.448;2023-03-01T17:24:13;6.11;;;6.10;;
71290;SDS011;59073;51.994;4.448;2023-03-01T17:26:41;5.81;;;5.75;;
71290;SDS011;59073;51.994;4.448;2023-03-01T17:56:39;6.26;;;6.21;;
71290;SDS011;59073;51.994;4.448;2023-03-01T17:59:23;6.38;;;6.25;;
71290;SDS011;59073;51.994;4.448;2023-03-01T18:01:49;6.40;;;6.33;;
71290;SDS011;59073;51.994;4.448;2023-03-01T18:04:18;5.90;;;5.87;;
71290;SDS011;59073;51.994;4.448;2023-03-01T18:06:44;5.95;;;5.91;;
71290;SDS011;59073;51.994;4.448;2023-03-01T18:09:12;6.13;;;6.09;;
71290;SDS011;59073;51.994;4.448;2023-03-01T18:11:41;6.20;;;6.12;;
71290;SDS011;59073;51.994;4.448;2023-03-01T18:14:22;5.96;;;5.90;;
71290;SDS011;59073;51.994;4.448;2023-03-01T18:16:58;6.87;;;6.80;;
71290;SDS011;59073;51.994;4.448;2023-03-01T18:19:26;6.64;;;6.59;;
71290;SDS011;59073;51.994;4.448;2023-03-01T18:21:53;6.52;;;6.46;;
71290;SDS011;59073;51.994;4.448;2023-03-01T18:28:20;6.94;;;6.92;;
71290;SDS011;59073;51.994;4.448;2023-03-01T18:31:35;6.34;;;6.32;;
71290;SDS011;59073;51.994;4.448;2023-03-01T18:34:19;6.77;;;6.77;;
71290;SDS011;59073;51.994;4.448;2023-03-01T18:37:07;6.35;;;6.34;;
71290;SDS011;59073;51.994;4.448;2023-03-01T18:39:32;6.21;;;6.21;;
71290;SDS011;59073;51.994;4.448;2023-03-01T18:42:05;6.49;;;6.45;;
71290;SDS011;59073;51.994;4.448;2023-03-01T18:47:48;6.47;;;6.44;;
71290;SDS011;59073;51.994;4.448;2023-03-01T18:50:27;6.74;;;6.69;;
71290;SDS011;59073;51.994;4.448;2023-03-01T18:52:54;6.60;;;6.55;;
71290;SDS011;59073;51.994;4.448;2023-03-01T18:55:34;6.74;;;6.69;;
71290;SDS011;59073;51.994;4.448;2023-03-01T19:01:20;6.53;;;6.51;;
71290;SDS011;59073;51.994;4.448;2023-03-01T19:04:09;6.97;;;6.89;;
71290;SDS011;59073;51.994;4.448;2023-03-01T19:06:46;6.97;;;6.96;;
71290;SDS011;59073;51.994;4.448;2023-03-01T19:09:17;6.59;;;6.51;;
71290;SDS011;59073;51.994;4.448;2023-03-01T19:11:56;6.97;;;6.93;;
71290;SDS011;59073;51.994;4.448;2023-03-01T19:14:27;7.64;;;7.57;;
71290;SDS011;59073;51.994;4.448;2023-03-01T19:16:56;7.36;;;7.33;;
71290;SDS011;59073;51.994;4.448;2023-03-01T19:19:24;7.80;;;7.77;;
71290;SDS011;59073;51.994;4.448;2023-03-01T19:21:58;7.40;;;7.31;;
71290;SDS011;59073;51.994;4.448;2023-03-01T19:24:29;7.04;;;7.00;;
71290;SDS011;59073;51.994;4.448;2023-03-01T19:27:04;7.56;;;7.51;;
71290;SDS011;59073;51.994;4.448;2023-03-01T19:30:01;7.08;;;7.05;;
71290;SDS011;59073;51.994;4.448;2023-03-01T19:32:27;7.40;;;7.37;;
71290;SDS011;59073;51.994;4.448;2023-03-01T19:34:52;7.40;;;7.34;;
71290;SDS011;59073;51.994;4.448;2023-03-01T19:37:18;7.53;;;7.47;;
71290;SDS011;59073;51.994;4.448;2023-03-01T19:39:46;7.82;;;7.72;;
71290;SDS011;59073;51.994;4.448;2023-03-01T19:42:12;7.81;;;7.78;;
71290;SDS011;59073;51.994;4.448;2023-03-01T19:44:38;7.55;;;7.53;;
71290;SDS011;59073;51.994;4.448;2023-03-01T19:47:04;7.65;;;7.59;;
71290;SDS011;59073;51.994;4.448;2023-03-01T19:49:29;8.14;;;7.95;;
71290;SDS011;59073;51.994;4.448;2023-03-01T19:51:56;7.70;;;7.62;;
71290;SDS011;59073;51.994;4.448;2023-03-01T19:54:21;7.98;;;7.93;;
71290;SDS011;59073;51.994;4.448;2023-03-01T19:59:39;7.56;;;7.56;;
71290;SDS011;59073;51.994;4.448;2023-03-01T20:02:05;7.68;;;7.67;;
71290;SDS011;59073;51.994;4.448;2023-03-01T20:04:31;8.20;;;8.16;;
71290;SDS011;59073;51.994;4.448;2023-03-01T20:06:56;8.52;;;8.47;;
71290;SDS011;59073;51.994;4.448;2023-03-01T20:09:22;8.49;;;8.47;;
71290;SDS011;59073;51.994;4.448;2023-03-01T20:11:47;8.59;;;8.57;;
71290;SDS011;59073;51.994;4.448;2023-03-01T20:14:13;8.47;;;8.40;;
71290;SDS011;59073;51.994;4.448;2023-03-01T20:16:41;8.61;;;8.56;;
71290;SDS011;59073;51.994;4.448;2023-03-01T20:19:06;8.91;;;8.77;;
71290;SDS011;59073;51.994;4.448;2023-03-01T20:21:32;8.41;;;8.31;;
71290;SDS011;59073;51.994;4.448;2023-03-01T20:23:58;8.46;;;8.44;;
71290;SDS011;59073;51.994;4.448;2023-03-01T20:26:26;8.47;;;8.47;;
71290;SDS011;59073;51.994;4.448;2023-03-01T20:28:53;8.66;;;8.64;;
71290;SDS011;59073;51.994;4.448;2023-03-01T20:31:21;8.74;;;8.72;;
71290;SDS011;59073;51.994;4.448;2023-03-01T20:33:56;9.67;;;9.56;;
71290;SDS011;59073;51.994;4.448;2023-03-01T20:36:33;9.07;;;8.98;;
71290;SDS011;59073;51.994;4.448;2023-03-01T20:39:20;8.83;;;8.82;;
71290;SDS011;59073;51.994;4.448;2023-03-01T20:41:50;9.39;;;9.34;;
71290;SDS011;59073;51.994;4.448;2023-03-01T20:44:19;9.29;;;9.24;;
71290;SDS011;59073;51.994;4.448;2023-03-01T20:46:52;9.15;;;9.07;;
71290;SDS011;59073;51.994;4.448;2023-03-01T20:49:18;9.22;;;9.21;;
71290;SDS011;59073;51.994;4.448;2023-03-01T20:51:44;9.34;;;9.33;;
71290;SDS011;59073;51.994;4.448;2023-03-01T20:54:10;9.53;;;9.48;;
71290;SDS011;59073;51.994;4.448;2023-03-01T20:56:35;9.35;;;9.29;;
71290;SDS011;59073;51.994;4.448;2023-03-01T20:59:02;9.71;;;9.67;;
71290;SDS011;59073;51.994;4.448;2023-03-01T21:01:29;9.60;;;9.47;;
71290;SDS011;59073;51.994;4.448;2023-03-01T21:03:54;9.70;;;9.64;;
71290;SDS011;59073;51.994;4.448;2023-03-01T21:06:20;9.73;;;9.62;;
71290;SDS011;59073;51.994;4.448;2023-03-01T21:08:45;9.63;;;9.52;;
71290;SDS011;59073;51.994;4.448;2023-03-01T21:11:11;10.05;;;9.91;;
71290;SDS011;59073;51.994;4.448;2023-03-01T21:13:36;10.62;;;10.52;;
71290;SDS011;59073;51.994;4.448;2023-03-01T21:18:30;10.08;;;10.05;;
71290;SDS011;59073;51.994;4.448;2023-03-01T21:20:57;10.38;;;10.35;;
71290;SDS011;59073;51.994;4.448;2023-03-01T21:23:24;10.71;;;10.69;;
71290;SDS011;59073;51.994;4.448;2023-03-01T21:26:00;10.74;;;10.71;;
71290;SDS011;59073;51.994;4.448;2023-03-01T21:28:25;12.14;;;12.11;;
71290;SDS011;59073;51.994;4.448;2023-03-01T21:30:53;12.11;;;11.94;;
71290;SDS011;59073;51.994;4.448;2023-03-01T21:33:18;11.46;;;11.32;;
71290;SDS011;59073;51.994;4.448;2023-03-01T21:35:44;11.85;;;11.71;;
71290;SDS011;59073;51.994;4.448;2023-03-01T21:38:09;11.62;;;11.59;;
71290;SDS011;59073;51.994;4.448;2023-03-01T21:40:35;12.06;;;11.97;;
71290;SDS011;59073;51.994;4.448;2023-03-01T21:43:01;11.65;;;11.54;;
71290;SDS011;59073;51.994;4.448;2023-03-01T21:45:26;11.66;;;11.51;;
71290;SDS011;59073;51.994;4.448;2023-03-01T21:47:52;11.23;;;11.12;;
71290;SDS011;59073;51.994;4.448;2023-03-01T21:50:17;11.52;;;11.39;;
71290;SDS011;59073;51.994;4.448;2023-03-01T21:52:43;12.03;;;11.93;;
71290;SDS011;59073;51.994;4.448;2023-03-01T21:55:08;11.85;;;11.75;;
71290;SDS011;59073;51.994;4.448;2023-03-01T21:57:34;11.95;;;11.88;;
71290;SDS011;59073;51.994;4.448;2023-03-01T22:00:07;12.78;;;12.64;;
71290;SDS011;59073;51.994;4.448;2023-03-01T22:02:34;13.36;;;13.20;;
71290;SDS011;59073;51.994;4.448;2023-03-01T22:04:59;14.42;;;14.18;;
71290;SDS011;59073;51.994;4.448;2023-03-01T22:07:25;14.68;;;14.50;;
71290;SDS011;59073;51.994;4.448;2023-03-01T22:09:50;14.80;;;14.65;;
71290;SDS011;59073;51.994;4.448;2023-03-01T22:12:16;15.74;;;15.42;;
71290;SDS011;59073;51.994;4.448;2023-03-01T22:14:41;15.38;;;15.04;;
71290;SDS011;59073;51.994;4.448;2023-03-01T22:17:07;13.96;;;13.80;;
71290;SDS011;59073;51.994;4.448;2023-03-01T22:19:33;13.07;;;12.91;;
71290;SDS011;59073;51.994;4.448;2023-03-01T22:21:59;12.80;;;12.61;;
71290;SDS011;59073;51.994;4.448;2023-03-01T22:24:24;12.69;;;12.56;;
71290;SDS011;59073;51.994;4.448;2023-03-01T22:26:50;12.92;;;12.74;;
71290;SDS011;59073;51.994;4.448;2023-03-01T22:29:22;13.16;;;12.99;;
71290;SDS011;59073;51.994;4.448;2023-03-01T22:31:53;12.78;;;12.59;;
71290;SDS011;59073;51.994;4.448;2023-03-01T22:34:20;12.47;;;12.31;;
71290;SDS011;59073;51.994;4.448;2023-03-01T22:36:46;12.16;;;12.04;;
71290;SDS011;59073;51.994;4.448;2023-03-01T22:39:13;11.61;;;11.47;;
71290;SDS011;59073;51.994;4.448;2023-03-01T22:41:40;11.95;;;11.85;;
71290;SDS011;59073;51.994;4.448;2023-03-01T22:44:12;11.99;;;11.84;;
71290;SDS011;59073;51.994;4.448;2023-03-01T22:46:40;11.59;;;11.54;;
71290;SDS011;59073;51.994;4.448;2023-03-01T22:49:07;12.09;;;11.91;;
71290;SDS011;59073;51.994;4.448;2023-03-01T22:51:34;12.10;;;11.84;;
71290;SDS011;59073;51.994;4.448;2023-03-01T22:54:02;11.68;;;11.50;;
71290;SDS011;59073;51.994;4.448;2023-03-01T22:56:30;11.28;;;11.14;;
71290;SDS011;59073;51.994;4.448;2023-03-01T22:59:02;10.83;;;10.68;;
71290;SDS011;59073;51.994;4.448;2023-03-01T23:01:32;11.08;;;10.99;;
71290;SDS011;59073;51.994;4.448;2023-03-01T23:03:58;11.40;;;11.32;;
71290;SDS011;59073;51.994;4.448;2023-03-01T23:06:23;11.10;;;10.98;;
71290;SDS011;59073;51.994;4.448;2023-03-01T23:08:50;11.04;;;10.84;;
71290;SDS011;59073;51.994;4.448;2023-03-01T23:11:17;11.04;;;10.95;;
71290;SDS011;59073;51.994;4.448;2023-03-01T23:13:45;10.87;;;10.71;;
71290;SDS011;59073;51.994;4.448;2023-03-01T23:16:11;11.32;;;11.13;;
71290;SDS011;59073;51.994;4.448;2023-03-01T23:18:37;11.10;;;11.04;;
71290;SDS011;59073;51.994;4.448;2023-03-01T23:21:21;11.24;;;11.08;;
71290;SDS011;59073;51.994;4.448;2023-03-01T23:23:47;11.62;;;11.51;;
71290;SDS011;59073;51.994;4.448;2023-03-01T23:26:13;12.11;;;11.90;;
71290;SDS011;59073;51.994;4.448;2023-03-01T23:28:40;11.67;;;11.51;;
71290;SDS011;59073;51.994;4.448;2023-03-01T23:31:07;11.11;;;11.03;;
71290;SDS011;59073;51.994;4.448;2023-03-01T23:33:35;11.66;;;11.52;;
71290;SDS011;59073;51.994;4.448;2023-03-01T23:36:04;11.92;;;11.76;;
71290;SDS011;59073;51.994;4.448;2023-03-01T23:38:31;12.79;;;12.52;;
71290;SDS011;59073;51.994;4.448;2023-03-01T23:40:57;12.59;;;12.40;;
71290;SDS011;59073;51.994;4.448;2023-03-01T23:43:22;12.62;;;12.46;;